Newell, SD

9:09 PM MDT on October 21, 2014 (GMT -0600)
Black Hills-Ice | Change Station
CLOSE
Current Station
Airport
Location: Spearfish,
Elevation: 3898 ft
Nearby Weather Stations

Elev 3898 ft 44.48 °N, 103.78 °W | Updated 14 minutes ago

Partly Cloudy
Partly Cloudy
59 °F
Feels Like 59 °F
N
14
Wind Variable Wind from SSW

Today
High -- | Low -- °F
--% Chance of Precip.
Yesterday
High -- | Low -- °F
Precip. -- in
7:16 AM 5:58 PM
Waning Crescent, 3% visible
Pressure 29.78 in
Visibility 10.0 miles
Clouds Few 12000 ft
Dew Point 39 °F
Humidity 48%
Rainfall 0.00 in
Snow Depth Not available.
UV 0 out of 12
Pollen 2.90 out of 12
Air Quality Not available.
Flu Activity Sporadic
METAR KSPF 220255Z AUTO 20012KT 10SM FEW120 15/04 A2978 RMK AO2

More Conditions Fewer Conditions

Pressure 29.78 in
Visibility 10.0 miles
Clouds Few 12000 ft
Dew Point 39 °F
Humidity 48%
Rainfall 0.00 in
Snow Depth Not available.
UV 0 out of 12
Pollen 2.90 out of 12
Air Quality Not available.
Flu Activity Sporadic
METAR KSPF 220255Z AUTO 20012KT 10SM FEW120 15/04 A2978 RMK AO2

More Conditions Fewer Conditions

10-Day Weather Forecast

Almanac

Astronomy

Oct. 21, 2014 Rise Set
Actual Time 7:16 AM MDT 5:58 PM MDT
Civil Twilight 6:47 AM MDT 6:28 PM MDT
Nautical Twilight 6:13 AM MDT 7:02 PM MDT
Astronomical Twilight 5:39 AM MDT 7:36 PM MDT
Moon 4:58 AM MDT (10/21) 4:58 PM MDT (10/21)
Length of Visible Light 11h 41m
Length of Day
10h 42m
Tomorrow will be 2m 56s shorter.
Waning Crescent, 3% of the Moon is Illuminated
Today
Waning Crescent
Oct 23
New
Oct 30
First Quarter
Nov 6
Full
Nov 14
Last Quarter

Today's Extremes

State Highs State Lows

Community

WunderPhotos

Upload Photos

1,763,866 photos uploaded!

Nearby

Snow Depth

Station Depth Elevation
Blind Park 0 in 6890 ft

Earthquake Activity

City Distance Mag. Time & Date
No recent earthquake activity has been reported nearby.
Minimum magnitude displayed is 2.5.

Coastal Water Temperatures

Place Temperature
No Stations Reporting

Nearby Weather Stations